Pagrindinis puslapis
METAR-TAF:

METAR-TAF

Oro uostai :

Pekino tarptautinis oro uostas

Pekinas, Kinija

platuma: 39-56N, ilguma: 116-17E, Aukštis: 55 m

Dabartinis oras

Ataskaita buvo paskelbta 26 minutes, ne 03:00 UTC
Vėjas 4 kt iš Vakarų/Šiaurės Vakarų, svyruoja nuo Vakarų ir Šiaurės
Temperatūra 6°C
Drėgmė 65%
Slėgis 1027 hPa
Matomumas: 4000 m
rūkana

METAR: ZBAA 210300Z 30002MPS 260V010 4000 BR NSC 06/M00 Q1027 NOSIG

Laikas: 11:26 (03:26 UTC)

Prognozė

Ataskaita buvo paskelbta 6 valandos ir 13 minutes, ne 21:13 UTC
Prognozė galioja nuo 21 metu 00 UTC su 21 metu 24 UTC
Vėjas 8 kt iš Šiaurės/Šiaurės Rytų
Matomumas: 2500 m
rūkana
Tapsmas
nuo 21 metu 02 UTC su 21 metu 03 UTC
Vėjas 14 kt iš Šiaurės Vakarų su gūsio iki 27 kt
Matomumas: 3500 m

TAF: ZBAA 202113Z 2100/2124 02004MPS 2500 BR NSC TX11/2107Z TNM02/2121Z BECMG 2102/2103 32007G14MPS 3500

Orai ataskaitas ir orų prognozės (METAR, TAF).

turimą stotys yra geltonos ir raudonos taškus žemėlapyje.

Perkelti pele per norėdami pamatyti stoties vardą.

Tada spustelėkite, norėdami matyti oro stebėjimo ir prognozės.

Norėdami pakeisti žemėlapį: spustelėkite ant žalios mygtukų su juodo kryžiaus žemyn,; žalią mygtuką su brūkšneliu, jei norite nutolinti; arba žalių rodyklių gretimoms žemėlapius.


METAR-TAF: